Waters, Michigan
Current Conditions -  °F | °C
As of 10:53 AM on Thursday 23 Oct 2014 (Local Time) from KGLR Reporting Station
Clear Clear  
Wind Chill: 33°   Ceiling: Unl
Heat Index: 39°   Visibility: 10mi
Dew Point: 37°   Wind: 8mph
Humidity: 93%   Direction: 210°SSW
Pressure: 30.2"   Gusts: NA
Location:  44.88°N, 84.7°W
Report Text: KGLR 231453Z AUTO 21007KT 10SM CLR 04/03 A3020 RMK AO2 SLP243 I3000 T00390028 58003
Loading
Personal Weather Stations






























Interactive Weather Map
Tropical Storm Tracking
New forecast layout! Learn more

10-Day Weather Forecast

Advertisements
Track Severe Weather on mobile